sensor_id;sensor_type;location;lat;lon;timestamp;P1;durP1;ratioP1;P2;durP2;ratioP2
3349;SDS011;1688;51.000;13.684;2023-08-30T00:00:43;0.70;;;0.40;;
3349;SDS011;1688;51.000;13.684;2023-08-30T00:03:17;0.70;;;0.40;;
3349;SDS011;1688;51.000;13.684;2023-08-30T00:05:50;0.70;;;0.40;;
3349;SDS011;1688;51.000;13.684;2023-08-30T00:08:23;0.70;;;0.40;;
3349;SDS011;1688;51.000;13.684;2023-08-30T00:10:56;0.70;;;0.40;;
3349;SDS011;1688;51.000;13.684;2023-08-30T00:13:31;0.70;;;0.40;;
3349;SDS011;1688;51.000;13.684;2023-08-30T00:16:05;3.07;;;2.93;;
3349;SDS011;1688;51.000;13.684;2023-08-30T00:18:39;0.70;;;0.40;;
3349;SDS011;1688;51.000;13.684;2023-08-30T00:21:11;0.70;;;0.40;;
3349;SDS011;1688;51.000;13.684;2023-08-30T00:23:44;0.70;;;0.40;;
3349;SDS011;1688;51.000;13.684;2023-08-30T00:26:17;0.70;;;0.40;;
3349;SDS011;1688;51.000;13.684;2023-08-30T00:28:50;0.70;;;0.40;;
3349;SDS011;1688;51.000;13.684;2023-08-30T00:31:23;0.67;;;0.40;;
3349;SDS011;1688;51.000;13.684;2023-08-30T00:33:56;0.70;;;0.40;;
3349;SDS011;1688;51.000;13.684;2023-08-30T00:36:28;0.70;;;0.40;;
3349;SDS011;1688;51.000;13.684;2023-08-30T00:39:02;0.70;;;0.40;;
3349;SDS011;1688;51.000;13.684;2023-08-30T00:41:36;0.70;;;0.40;;
3349;SDS011;1688;51.000;13.684;2023-08-30T00:44:09;0.70;;;0.40;;
3349;SDS011;1688;51.000;13.684;2023-08-30T00:46:42;0.70;;;0.40;;
3349;SDS011;1688;51.000;13.684;2023-08-30T00:49:15;0.70;;;0.40;;
3349;SDS011;1688;51.000;13.684;2023-08-30T00:51:48;0.70;;;0.40;;
3349;SDS011;1688;51.000;13.684;2023-08-30T00:54:21;0.70;;;0.50;;
3349;SDS011;1688;51.000;13.684;2023-08-30T00:56:54;0.70;;;0.47;;
3349;SDS011;1688;51.000;13.684;2023-08-30T00:59:27;0.70;;;0.40;;
3349;SDS011;1688;51.000;13.684;2023-08-30T01:02:01;0.70;;;0.40;;
3349;SDS011;1688;51.000;13.684;2023-08-30T01:04:36;0.70;;;0.40;;
3349;SDS011;1688;51.000;13.684;2023-08-30T01:07:09;0.70;;;0.40;;
3349;SDS011;1688;51.000;13.684;2023-08-30T01:09:41;0.70;;;0.50;;
3349;SDS011;1688;51.000;13.684;2023-08-30T01:12:20;0.70;;;0.40;;
3349;SDS011;1688;51.000;13.684;2023-08-30T01:15:02;0.70;;;0.40;;
3349;SDS011;1688;51.000;13.684;2023-08-30T01:17:42;0.63;;;0.40;;
3349;SDS011;1688;51.000;13.684;2023-08-30T01:20:16;0.70;;;0.40;;
3349;SDS011;1688;51.000;13.684;2023-08-30T01:23:07;0.60;;;0.40;;
3349;SDS011;1688;51.000;13.684;2023-08-30T01:26:13;0.70;;;0.40;;
3349;SDS011;1688;51.000;13.684;2023-08-30T01:28:59;0.70;;;0.50;;
3349;SDS011;1688;51.000;13.684;2023-08-30T01:31:33;0.70;;;0.40;;
3349;SDS011;1688;51.000;13.684;2023-08-30T01:34:07;0.70;;;0.40;;
3349;SDS011;1688;51.000;13.684;2023-08-30T01:36:41;0.70;;;0.40;;
3349;SDS011;1688;51.000;13.684;2023-08-30T01:39:14;0.60;;;0.40;;
3349;SDS011;1688;51.000;13.684;2023-08-30T01:41:48;0.70;;;0.40;;
3349;SDS011;1688;51.000;13.684;2023-08-30T01:44:27;0.70;;;0.40;;
3349;SDS011;1688;51.000;13.684;2023-08-30T01:47:00;0.70;;;0.50;;
3349;SDS011;1688;51.000;13.684;2023-08-30T01:49:34;0.70;;;0.40;;
3349;SDS011;1688;51.000;13.684;2023-08-30T01:52:10;0.70;;;0.40;;
3349;SDS011;1688;51.000;13.684;2023-08-30T01:54:43;0.70;;;0.40;;
3349;SDS011;1688;51.000;13.684;2023-08-30T01:57:18;0.70;;;0.40;;
3349;SDS011;1688;51.000;13.684;2023-08-30T01:59:50;0.70;;;0.40;;
3349;SDS011;1688;51.000;13.684;2023-08-30T02:02:24;0.70;;;0.40;;
3349;SDS011;1688;51.000;13.684;2023-08-30T02:05:01;0.70;;;0.40;;
3349;SDS011;1688;51.000;13.684;2023-08-30T02:10:34;0.70;;;0.40;;
3349;SDS011;1688;51.000;13.684;2023-08-30T02:13:08;0.70;;;0.40;;
3349;SDS011;1688;51.000;13.684;2023-08-30T02:19:37;0.70;;;0.40;;
3349;SDS011;1688;51.000;13.684;2023-08-30T02:22:10;0.70;;;0.40;;
3349;SDS011;1688;51.000;13.684;2023-08-30T02:24:44;0.70;;;0.40;;
3349;SDS011;1688;51.000;13.684;2023-08-30T02:27:17;0.70;;;0.40;;
3349;SDS011;1688;51.000;13.684;2023-08-30T02:29:49;0.70;;;0.40;;
3349;SDS011;1688;51.000;13.684;2023-08-30T02:32:22;0.70;;;0.40;;
3349;SDS011;1688;51.000;13.684;2023-08-30T02:34:55;0.70;;;0.40;;
3349;SDS011;1688;51.000;13.684;2023-08-30T02:37:28;0.70;;;0.40;;
3349;SDS011;1688;51.000;13.684;2023-08-30T02:40:01;0.70;;;0.40;;
3349;SDS011;1688;51.000;13.684;2023-08-30T02:42:35;0.70;;;0.40;;
3349;SDS011;1688;51.000;13.684;2023-08-30T02:45:08;0.70;;;0.40;;
3349;SDS011;1688;51.000;13.684;2023-08-30T02:47:41;0.70;;;0.40;;
3349;SDS011;1688;51.000;13.684;2023-08-30T02:50:14;0.70;;;0.40;;
3349;SDS011;1688;51.000;13.684;2023-08-30T02:52:47;0.70;;;0.40;;
3349;SDS011;1688;51.000;13.684;2023-08-30T02:55:19;2.07;;;1.93;;
3349;SDS011;1688;51.000;13.684;2023-08-30T02:57:52;0.70;;;0.40;;
3349;SDS011;1688;51.000;13.684;2023-08-30T03:00:25;0.70;;;0.40;;
3349;SDS011;1688;51.000;13.684;2023-08-30T03:02:58;0.70;;;0.50;;
3349;SDS011;1688;51.000;13.684;2023-08-30T03:05:31;0.70;;;0.50;;
3349;SDS011;1688;51.000;13.684;2023-08-30T03:08:04;0.70;;;0.40;;
3349;SDS011;1688;51.000;13.684;2023-08-30T03:10:37;0.70;;;0.40;;
3349;SDS011;1688;51.000;13.684;2023-08-30T03:13:09;0.70;;;0.40;;
3349;SDS011;1688;51.000;13.684;2023-08-30T03:15:42;0.70;;;0.40;;
3349;SDS011;1688;51.000;13.684;2023-08-30T03:18:15;0.70;;;0.40;;
3349;SDS011;1688;51.000;13.684;2023-08-30T03:20:48;0.63;;;0.40;;
3349;SDS011;1688;51.000;13.684;2023-08-30T03:23:31;0.70;;;0.40;;
3349;SDS011;1688;51.000;13.684;2023-08-30T03:26:11;0.70;;;0.40;;
3349;SDS011;1688;51.000;13.684;2023-08-30T03:28:44;0.70;;;0.40;;
3349;SDS011;1688;51.000;13.684;2023-08-30T03:31:18;0.67;;;0.40;;
3349;SDS011;1688;51.000;13.684;2023-08-30T03:33:52;0.70;;;0.40;;
3349;SDS011;1688;51.000;13.684;2023-08-30T03:36:25;0.70;;;0.70;;
3349;SDS011;1688;51.000;13.684;2023-08-30T03:38:58;0.70;;;0.40;;
3349;SDS011;1688;51.000;13.684;2023-08-30T03:41:31;0.70;;;0.50;;
3349;SDS011;1688;51.000;13.684;2023-08-30T03:44:04;0.70;;;0.40;;
3349;SDS011;1688;51.000;13.684;2023-08-30T03:46:36;0.70;;;0.63;;
3349;SDS011;1688;51.000;13.684;2023-08-30T03:49:09;0.70;;;0.40;;
3349;SDS011;1688;51.000;13.684;2023-08-30T03:51:42;0.70;;;0.40;;
3349;SDS011;1688;51.000;13.684;2023-08-30T03:54:15;0.70;;;0.40;;
3349;SDS011;1688;51.000;13.684;2023-08-30T03:56:48;0.70;;;0.40;;
3349;SDS011;1688;51.000;13.684;2023-08-30T03:59:21;0.70;;;0.40;;
3349;SDS011;1688;51.000;13.684;2023-08-30T04:01:58;0.83;;;0.80;;
3349;SDS011;1688;51.000;13.684;2023-08-30T04:04:31;0.70;;;0.40;;
3349;SDS011;1688;51.000;13.684;2023-08-30T04:07:04;0.70;;;0.40;;
3349;SDS011;1688;51.000;13.684;2023-08-30T04:09:38;0.70;;;0.40;;
3349;SDS011;1688;51.000;13.684;2023-08-30T04:12:10;0.70;;;0.40;;
3349;SDS011;1688;51.000;13.684;2023-08-30T04:14:43;0.70;;;0.40;;
3349;SDS011;1688;51.000;13.684;2023-08-30T04:17:16;0.70;;;0.40;;
3349;SDS011;1688;51.000;13.684;2023-08-30T04:19:52;0.70;;;0.40;;
3349;SDS011;1688;51.000;13.684;2023-08-30T04:22:25;0.70;;;0.40;;
3349;SDS011;1688;51.000;13.684;2023-08-30T04:24:59;0.70;;;0.50;;
3349;SDS011;1688;51.000;13.684;2023-08-30T04:27:32;0.70;;;0.40;;
3349;SDS011;1688;51.000;13.684;2023-08-30T04:30:05;0.70;;;0.40;;
3349;SDS011;1688;51.000;13.684;2023-08-30T04:32:38;0.70;;;0.40;;
3349;SDS011;1688;51.000;13.684;2023-08-30T04:35:11;0.70;;;0.40;;
3349;SDS011;1688;51.000;13.684;2023-08-30T04:37:44;0.70;;;0.40;;
3349;SDS011;1688;51.000;13.684;2023-08-30T04:40:17;0.70;;;0.40;;
3349;SDS011;1688;51.000;13.684;2023-08-30T04:42:50;0.70;;;0.40;;
3349;SDS011;1688;51.000;13.684;2023-08-30T04:45:26;0.70;;;0.70;;
3349;SDS011;1688;51.000;13.684;2023-08-30T04:48:00;0.70;;;0.40;;
3349;SDS011;1688;51.000;13.684;2023-08-30T04:50:33;0.70;;;0.40;;
3349;SDS011;1688;51.000;13.684;2023-08-30T04:53:06;0.70;;;0.40;;
3349;SDS011;1688;51.000;13.684;2023-08-30T04:55:39;0.70;;;0.40;;
3349;SDS011;1688;51.000;13.684;2023-08-30T04:58:12;0.70;;;0.40;;
3349;SDS011;1688;51.000;13.684;2023-08-30T05:00:47;0.70;;;0.40;;
3349;SDS011;1688;51.000;13.684;2023-08-30T05:03:20;0.70;;;0.40;;
3349;SDS011;1688;51.000;13.684;2023-08-30T05:05:53;0.70;;;0.40;;
3349;SDS011;1688;51.000;13.684;2023-08-30T05:08:25;0.70;;;0.40;;
3349;SDS011;1688;51.000;13.684;2023-08-30T05:10:58;0.70;;;0.40;;
3349;SDS011;1688;51.000;13.684;2023-08-30T05:13:31;0.70;;;0.40;;
3349;SDS011;1688;51.000;13.684;2023-08-30T05:16:04;0.70;;;0.40;;
3349;SDS011;1688;51.000;13.684;2023-08-30T05:18:37;0.70;;;0.40;;
3349;SDS011;1688;51.000;13.684;2023-08-30T05:21:10;0.70;;;0.50;;
3349;SDS011;1688;51.000;13.684;2023-08-30T05:23:43;5.83;;;5.17;;
3349;SDS011;1688;51.000;13.684;2023-08-30T05:26:16;0.70;;;0.40;;
3349;SDS011;1688;51.000;13.684;2023-08-30T05:28:51;0.70;;;0.40;;
3349;SDS011;1688;51.000;13.684;2023-08-30T05:31:24;0.70;;;0.40;;
3349;SDS011;1688;51.000;13.684;2023-08-30T05:33:57;0.70;;;0.40;;
3349;SDS011;1688;51.000;13.684;2023-08-30T05:36:30;0.70;;;0.40;;
3349;SDS011;1688;51.000;13.684;2023-08-30T05:39:03;0.70;;;0.40;;
3349;SDS011;1688;51.000;13.684;2023-08-30T05:41:35;0.70;;;0.40;;
3349;SDS011;1688;51.000;13.684;2023-08-30T05:44:08;0.70;;;0.40;;
3349;SDS011;1688;51.000;13.684;2023-08-30T05:46:41;0.70;;;0.40;;
3349;SDS011;1688;51.000;13.684;2023-08-30T05:49:14;2.47;;;2.30;;
3349;SDS011;1688;51.000;13.684;2023-08-30T05:51:47;0.70;;;0.40;;
3349;SDS011;1688;51.000;13.684;2023-08-30T05:54:20;0.70;;;0.40;;
3349;SDS011;1688;51.000;13.684;2023-08-30T05:56:53;0.70;;;0.40;;
3349;SDS011;1688;51.000;13.684;2023-08-30T05:59:26;0.70;;;0.50;;
3349;SDS011;1688;51.000;13.684;2023-08-30T06:02:00;0.70;;;0.40;;
3349;SDS011;1688;51.000;13.684;2023-08-30T06:04:33;0.70;;;0.40;;
3349;SDS011;1688;51.000;13.684;2023-08-30T06:07:06;0.70;;;0.40;;
3349;SDS011;1688;51.000;13.684;2023-08-30T06:09:38;0.70;;;0.40;;
3349;SDS011;1688;51.000;13.684;2023-08-30T06:12:11;0.70;;;0.40;;
3349;SDS011;1688;51.000;13.684;2023-08-30T06:14:44;1.07;;;1.00;;
3349;SDS011;1688;51.000;13.684;2023-08-30T06:17:22;0.70;;;0.43;;
3349;SDS011;1688;51.000;13.684;2023-08-30T06:19:55;0.70;;;0.40;;
3349;SDS011;1688;51.000;13.684;2023-08-30T06:26:21;0.70;;;0.50;;
3349;SDS011;1688;51.000;13.684;2023-08-30T06:28:54;0.70;;;0.40;;
3349;SDS011;1688;51.000;13.684;2023-08-30T06:31:36;0.70;;;0.40;;
3349;SDS011;1688;51.000;13.684;2023-08-30T06:34:09;0.70;;;0.40;;
3349;SDS011;1688;51.000;13.684;2023-08-30T06:36:42;0.70;;;0.50;;
3349;SDS011;1688;51.000;13.684;2023-08-30T06:39:15;0.70;;;0.40;;
3349;SDS011;1688;51.000;13.684;2023-08-30T06:41:49;0.70;;;0.40;;
3349;SDS011;1688;51.000;13.684;2023-08-30T06:44:22;0.70;;;0.40;;
3349;SDS011;1688;51.000;13.684;2023-08-30T06:46:55;0.70;;;0.40;;
3349;SDS011;1688;51.000;13.684;2023-08-30T06:49:33;0.70;;;0.40;;
3349;SDS011;1688;51.000;13.684;2023-08-30T06:52:06;0.70;;;0.40;;
3349;SDS011;1688;51.000;13.684;2023-08-30T06:54:39;0.70;;;0.40;;
3349;SDS011;1688;51.000;13.684;2023-08-30T06:57:12;0.70;;;0.40;;
3349;SDS011;1688;51.000;13.684;2023-08-30T06:59:45;0.70;;;0.50;;
3349;SDS011;1688;51.000;13.684;2023-08-30T07:02:18;0.80;;;0.60;;
3349;SDS011;1688;51.000;13.684;2023-08-30T07:04:51;0.70;;;0.40;;
3349;SDS011;1688;51.000;13.684;2023-08-30T07:07:24;0.70;;;0.40;;
3349;SDS011;1688;51.000;13.684;2023-08-30T07:09:57;0.70;;;0.40;;
3349;SDS011;1688;51.000;13.684;2023-08-30T07:12:30;0.70;;;0.40;;
3349;SDS011;1688;51.000;13.684;2023-08-30T07:15:02;0.70;;;0.43;;
3349;SDS011;1688;51.000;13.684;2023-08-30T07:17:36;0.70;;;0.50;;
3349;SDS011;1688;51.000;13.684;2023-08-30T07:20:24;0.70;;;0.40;;
3349;SDS011;1688;51.000;13.684;2023-08-30T07:22:57;0.70;;;0.40;;
3349;SDS011;1688;51.000;13.684;2023-08-30T07:25:30;0.70;;;0.50;;
3349;SDS011;1688;51.000;13.684;2023-08-30T07:28:05;0.70;;;0.50;;
3349;SDS011;1688;51.000;13.684;2023-08-30T07:30:39;0.70;;;0.40;;
3349;SDS011;1688;51.000;13.684;2023-08-30T07:33:11;0.70;;;0.50;;
3349;SDS011;1688;51.000;13.684;2023-08-30T07:35:44;0.70;;;0.50;;
3349;SDS011;1688;51.000;13.684;2023-08-30T07:38:18;0.70;;;0.40;;
3349;SDS011;1688;51.000;13.684;2023-08-30T07:40:51;0.70;;;0.40;;
3349;SDS011;1688;51.000;13.684;2023-08-30T07:43:23;0.70;;;0.40;;
3349;SDS011;1688;51.000;13.684;2023-08-30T07:45:57;0.70;;;0.40;;
3349;SDS011;1688;51.000;13.684;2023-08-30T07:48:31;0.70;;;0.50;;
3349;SDS011;1688;51.000;13.684;2023-08-30T07:51:04;0.70;;;0.50;;
3349;SDS011;1688;51.000;13.684;2023-08-30T07:53:37;0.70;;;0.40;;
3349;SDS011;1688;51.000;13.684;2023-08-30T07:56:09;0.70;;;0.40;;
3349;SDS011;1688;51.000;13.684;2023-08-30T07:58:42;0.70;;;0.40;;
3349;SDS011;1688;51.000;13.684;2023-08-30T08:01:15;0.70;;;0.40;;
3349;SDS011;1688;51.000;13.684;2023-08-30T08:03:48;0.70;;;0.50;;
3349;SDS011;1688;51.000;13.684;2023-08-30T08:06:37;0.70;;;0.40;;
3349;SDS011;1688;51.000;13.684;2023-08-30T08:09:12;0.70;;;0.40;;
3349;SDS011;1688;51.000;13.684;2023-08-30T08:11:45;0.70;;;0.40;;
3349;SDS011;1688;51.000;13.684;2023-08-30T08:14:18;0.70;;;0.40;;
3349;SDS011;1688;51.000;13.684;2023-08-30T08:16:51;0.70;;;0.40;;
3349;SDS011;1688;51.000;13.684;2023-08-30T08:19:23;0.70;;;0.40;;
3349;SDS011;1688;51.000;13.684;2023-08-30T08:21:57;0.70;;;0.40;;
3349;SDS011;1688;51.000;13.684;2023-08-30T08:24:30;0.70;;;0.50;;
3349;SDS011;1688;51.000;13.684;2023-08-30T08:27:03;1.43;;;1.33;;
3349;SDS011;1688;51.000;13.684;2023-08-30T08:29:38;0.70;;;0.43;;
3349;SDS011;1688;51.000;13.684;2023-08-30T08:32:11;0.70;;;0.40;;
3349;SDS011;1688;51.000;13.684;2023-08-30T08:34:43;0.70;;;0.40;;
3349;SDS011;1688;51.000;13.684;2023-08-30T08:37:16;0.70;;;0.40;;
3349;SDS011;1688;51.000;13.684;2023-08-30T08:39:49;0.70;;;0.40;;
3349;SDS011;1688;51.000;13.684;2023-08-30T08:42:22;0.70;;;0.60;;
3349;SDS011;1688;51.000;13.684;2023-08-30T08:44:55;0.70;;;0.40;;
3349;SDS011;1688;51.000;13.684;2023-08-30T08:47:30;0.70;;;0.40;;
3349;SDS011;1688;51.000;13.684;2023-08-30T08:50:03;0.70;;;0.40;;
3349;SDS011;1688;51.000;13.684;2023-08-30T08:52:37;0.70;;;0.40;;
3349;SDS011;1688;51.000;13.684;2023-08-30T08:55:29;0.70;;;0.50;;
3349;SDS011;1688;51.000;13.684;2023-08-30T08:58:03;0.70;;;0.40;;
3349;SDS011;1688;51.000;13.684;2023-08-30T09:00:36;0.70;;;0.40;;
3349;SDS011;1688;51.000;13.684;2023-08-30T09:03:10;0.70;;;0.40;;
3349;SDS011;1688;51.000;13.684;2023-08-30T09:05:47;0.70;;;0.40;;
3349;SDS011;1688;51.000;13.684;2023-08-30T09:08:21;0.70;;;0.40;;
3349;SDS011;1688;51.000;13.684;2023-08-30T09:10:54;0.70;;;0.40;;
3349;SDS011;1688;51.000;13.684;2023-08-30T09:13:27;1.57;;;1.47;;
3349;SDS011;1688;51.000;13.684;2023-08-30T09:15:59;0.70;;;0.40;;
3349;SDS011;1688;51.000;13.684;2023-08-30T09:18:32;0.70;;;0.50;;
3349;SDS011;1688;51.000;13.684;2023-08-30T09:21:06;0.70;;;0.40;;
3349;SDS011;1688;51.000;13.684;2023-08-30T09:23:42;0.70;;;0.40;;
3349;SDS011;1688;51.000;13.684;2023-08-30T09:26:14;0.70;;;0.40;;
3349;SDS011;1688;51.000;13.684;2023-08-30T09:28:47;0.70;;;0.50;;
3349;SDS011;1688;51.000;13.684;2023-08-30T09:31:20;0.70;;;0.40;;
3349;SDS011;1688;51.000;13.684;2023-08-30T09:33:57;2.80;;;2.20;;
3349;SDS011;1688;51.000;13.684;2023-08-30T09:36:37;4.83;;;1.70;;
3349;SDS011;1688;51.000;13.684;2023-08-30T09:39:14;2.30;;;1.60;;
3349;SDS011;1688;51.000;13.684;2023-08-30T09:41:47;1.90;;;1.80;;
3349;SDS011;1688;51.000;13.684;2023-08-30T09:44:21;1.97;;;1.77;;
3349;SDS011;1688;51.000;13.684;2023-08-30T09:46:54;2.90;;;2.60;;
3349;SDS011;1688;51.000;13.684;2023-08-30T09:49:29;2.53;;;1.57;;
3349;SDS011;1688;51.000;13.684;2023-08-30T09:52:08;1.90;;;1.80;;
3349;SDS011;1688;51.000;13.684;2023-08-30T09:54:42;2.20;;;1.97;;
3349;SDS011;1688;51.000;13.684;2023-08-30T09:57:17;2.17;;;1.70;;
3349;SDS011;1688;51.000;13.684;2023-08-30T09:59:51;1.90;;;1.50;;
3349;SDS011;1688;51.000;13.684;2023-08-30T10:02:24;2.90;;;1.70;;
3349;SDS011;1688;51.000;13.684;2023-08-30T10:04:57;3.37;;;2.43;;
3349;SDS011;1688;51.000;13.684;2023-08-30T10:07:31;6.33;;;3.10;;
3349;SDS011;1688;51.000;13.684;2023-08-30T10:10:05;1.87;;;1.70;;
3349;SDS011;1688;51.000;13.684;2023-08-30T10:12:41;3.97;;;2.93;;
3349;SDS011;1688;51.000;13.684;2023-08-30T10:15:27;3.10;;;2.30;;
3349;SDS011;1688;51.000;13.684;2023-08-30T10:18:08;8.63;;;3.70;;
3349;SDS011;1688;51.000;13.684;2023-08-30T10:20:43;2.70;;;2.50;;
3349;SDS011;1688;51.000;13.684;2023-08-30T10:23:17;2.87;;;2.60;;
3349;SDS011;1688;51.000;13.684;2023-08-30T10:25:51;2.50;;;2.30;;
3349;SDS011;1688;51.000;13.684;2023-08-30T10:28:26;2.70;;;2.47;;
3349;SDS011;1688;51.000;13.684;2023-08-30T10:31:00;1.70;;;1.60;;
3349;SDS011;1688;51.000;13.684;2023-08-30T10:33:46;2.60;;;2.33;;
3349;SDS011;1688;51.000;13.684;2023-08-30T10:36:23;3.37;;;3.07;;
3349;SDS011;1688;51.000;13.684;2023-08-30T10:38:57;2.80;;;2.50;;
3349;SDS011;1688;51.000;13.684;2023-08-30T10:41:29;2.77;;;2.27;;
3349;SDS011;1688;51.000;13.684;2023-08-30T10:44:02;2.50;;;1.53;;
3349;SDS011;1688;51.000;13.684;2023-08-30T10:46:35;2.57;;;2.10;;
3349;SDS011;1688;51.000;13.684;2023-08-30T10:49:09;2.83;;;2.27;;
3349;SDS011;1688;51.000;13.684;2023-08-30T10:51:54;2.33;;;2.13;;
3349;SDS011;1688;51.000;13.684;2023-08-30T10:54:38;1.87;;;1.60;;
3349;SDS011;1688;51.000;13.684;2023-08-30T10:57:15;5.23;;;1.83;;
3349;SDS011;1688;51.000;13.684;2023-08-30T11:02:51;1.50;;;1.40;;
3349;SDS011;1688;51.000;13.684;2023-08-30T11:05:25;2.50;;;2.07;;
3349;SDS011;1688;51.000;13.684;2023-08-30T11:07:58;4.07;;;2.17;;
3349;SDS011;1688;51.000;13.684;2023-08-30T11:10:32;1.60;;;1.50;;
3349;SDS011;1688;51.000;13.684;2023-08-30T11:13:05;2.13;;;1.60;;
3349;SDS011;1688;51.000;13.684;2023-08-30T11:15:38;1.13;;;1.03;;
3349;SDS011;1688;51.000;13.684;2023-08-30T11:18:11;1.60;;;1.50;;
3349;SDS011;1688;51.000;13.684;2023-08-30T11:20:44;2.50;;;1.27;;
3349;SDS011;1688;51.000;13.684;2023-08-30T11:23:17;3.47;;;1.10;;
3349;SDS011;1688;51.000;13.684;2023-08-30T11:25:50;1.00;;;0.90;;
3349;SDS011;1688;51.000;13.684;2023-08-30T11:28:24;3.03;;;1.43;;
3349;SDS011;1688;51.000;13.684;2023-08-30T11:30:57;3.63;;;1.93;;
3349;SDS011;1688;51.000;13.684;2023-08-30T11:33:30;3.17;;;2.43;;
3349;SDS011;1688;51.000;13.684;2023-08-30T11:36:03;2.13;;;1.77;;
3349;SDS011;1688;51.000;13.684;2023-08-30T11:38:37;2.57;;;1.70;;
3349;SDS011;1688;51.000;13.684;2023-08-30T11:41:10;1.87;;;1.67;;
3349;SDS011;1688;51.000;13.684;2023-08-30T11:43:44;1.50;;;1.10;;
3349;SDS011;1688;51.000;13.684;2023-08-30T11:46:17;1.50;;;1.40;;
3349;SDS011;1688;51.000;13.684;2023-08-30T11:48:51;1.73;;;1.63;;
3349;SDS011;1688;51.000;13.684;2023-08-30T11:51:24;2.00;;;1.80;;
3349;SDS011;1688;51.000;13.684;2023-08-30T11:53:57;2.40;;;1.50;;
3349;SDS011;1688;51.000;13.684;2023-08-30T11:56:31;3.33;;;2.03;;
3349;SDS011;1688;51.000;13.684;2023-08-30T11:59:04;1.60;;;1.43;;
3349;SDS011;1688;51.000;13.684;2023-08-30T12:01:37;1.67;;;1.23;;
3349;SDS011;1688;51.000;13.684;2023-08-30T12:04:10;1.50;;;1.40;;
3349;SDS011;1688;51.000;13.684;2023-08-30T12:06:43;1.63;;;0.93;;
3349;SDS011;1688;51.000;13.684;2023-08-30T12:09:31;2.50;;;1.47;;
3349;SDS011;1688;51.000;13.684;2023-08-30T12:12:10;2.00;;;1.30;;
3349;SDS011;1688;51.000;13.684;2023-08-30T12:14:44;1.93;;;1.57;;
3349;SDS011;1688;51.000;13.684;2023-08-30T12:17:17;2.73;;;1.67;;
3349;SDS011;1688;51.000;13.684;2023-08-30T12:19:56;1.47;;;1.37;;
3349;SDS011;1688;51.000;13.684;2023-08-30T12:22:36;3.43;;;1.30;;
3349;SDS011;1688;51.000;13.684;2023-08-30T12:25:17;1.93;;;1.73;;
3349;SDS011;1688;51.000;13.684;2023-08-30T12:27:50;3.70;;;1.40;;
3349;SDS011;1688;51.000;13.684;2023-08-30T12:30:23;1.40;;;1.30;;
3349;SDS011;1688;51.000;13.684;2023-08-30T12:33:00;2.23;;;1.33;;
3349;SDS011;1688;51.000;13.684;2023-08-30T12:35:36;4.27;;;1.70;;
3349;SDS011;1688;51.000;13.684;2023-08-30T12:38:09;0.90;;;0.80;;
3349;SDS011;1688;51.000;13.684;2023-08-30T12:40:46;1.80;;;1.37;;
3349;SDS011;1688;51.000;13.684;2023-08-30T12:43:21;1.57;;;1.40;;
3349;SDS011;1688;51.000;13.684;2023-08-30T12:45:54;3.17;;;1.80;;
3349;SDS011;1688;51.000;13.684;2023-08-30T12:48:28;2.17;;;1.33;;
3349;SDS011;1688;51.000;13.684;2023-08-30T12:51:00;2.80;;;1.83;;
3349;SDS011;1688;51.000;13.684;2023-08-30T12:53:35;1.33;;;1.23;;
3349;SDS011;1688;51.000;13.684;2023-08-30T12:56:08;1.07;;;0.97;;
3349;SDS011;1688;51.000;13.684;2023-08-30T12:58:41;1.20;;;1.10;;
3349;SDS011;1688;51.000;13.684;2023-08-30T13:01:14;1.37;;;1.20;;
3349;SDS011;1688;51.000;13.684;2023-08-30T13:03:47;2.03;;;1.10;;
3349;SDS011;1688;51.000;13.684;2023-08-30T13:06:20;1.43;;;1.33;;
3349;SDS011;1688;51.000;13.684;2023-08-30T13:08:53;1.27;;;1.17;;
3349;SDS011;1688;51.000;13.684;2023-08-30T13:11:25;1.70;;;1.60;;
3349;SDS011;1688;51.000;13.684;2023-08-30T13:14:00;2.40;;;1.13;;
3349;SDS011;1688;51.000;13.684;2023-08-30T13:16:33;1.27;;;0.87;;
3349;SDS011;1688;51.000;13.684;2023-08-30T13:19:06;1.53;;;1.43;;
3349;SDS011;1688;51.000;13.684;2023-08-30T13:21:39;3.27;;;1.50;;
3349;SDS011;1688;51.000;13.684;2023-08-30T13:24:13;1.27;;;1.17;;
3349;SDS011;1688;51.000;13.684;2023-08-30T13:26:45;1.43;;;1.20;;
3349;SDS011;1688;51.000;13.684;2023-08-30T13:29:18;1.33;;;1.20;;
3349;SDS011;1688;51.000;13.684;2023-08-30T13:31:51;1.60;;;1.47;;
3349;SDS011;1688;51.000;13.684;2023-08-30T13:34:24;1.20;;;1.10;;
3349;SDS011;1688;51.000;13.684;2023-08-30T13:36:57;1.30;;;1.20;;
3349;SDS011;1688;51.000;13.684;2023-08-30T13:39:30;1.67;;;1.57;;
3349;SDS011;1688;51.000;13.684;2023-08-30T13:42:03;1.07;;;0.97;;
3349;SDS011;1688;51.000;13.684;2023-08-30T13:44:36;2.70;;;1.13;;
3349;SDS011;1688;51.000;13.684;2023-08-30T13:47:09;1.70;;;1.50;;
3349;SDS011;1688;51.000;13.684;2023-08-30T13:49:50;1.70;;;1.60;;
3349;SDS011;1688;51.000;13.684;2023-08-30T13:52:23;2.07;;;1.87;;
3349;SDS011;1688;51.000;13.684;2023-08-30T13:54:56;2.30;;;1.20;;
3349;SDS011;1688;51.000;13.684;2023-08-30T13:57:29;1.80;;;1.33;;
3349;SDS011;1688;51.000;13.684;2023-08-30T14:00:11;1.70;;;1.60;;
3349;SDS011;1688;51.000;13.684;2023-08-30T14:02:45;1.70;;;1.57;;
3349;SDS011;1688;51.000;13.684;2023-08-30T14:05:35;1.40;;;1.10;;
3349;SDS011;1688;51.000;13.684;2023-08-30T14:08:14;1.40;;;1.07;;
3349;SDS011;1688;51.000;13.684;2023-08-30T14:10:47;2.03;;;1.30;;
3349;SDS011;1688;51.000;13.684;2023-08-30T14:13:20;3.20;;;1.90;;
3349;SDS011;1688;51.000;13.684;2023-08-30T14:15:53;1.27;;;1.17;;
3349;SDS011;1688;51.000;13.684;2023-08-30T14:18:26;1.70;;;1.60;;
3349;SDS011;1688;51.000;13.684;2023-08-30T14:20:59;3.07;;;2.60;;
3349;SDS011;1688;51.000;13.684;2023-08-30T14:23:33;2.90;;;2.17;;
3349;SDS011;1688;51.000;13.684;2023-08-30T14:26:08;3.63;;;1.50;;
3349;SDS011;1688;51.000;13.684;2023-08-30T14:28:45;2.40;;;2.20;;
3349;SDS011;1688;51.000;13.684;2023-08-30T14:31:18;1.87;;;1.77;;
3349;SDS011;1688;51.000;13.684;2023-08-30T14:33:53;1.67;;;1.50;;
3349;SDS011;1688;51.000;13.684;2023-08-30T14:36:28;2.00;;;1.80;;
3349;SDS011;1688;51.000;13.684;2023-08-30T14:39:01;1.63;;;1.50;;
3349;SDS011;1688;51.000;13.684;2023-08-30T14:41:35;1.20;;;1.10;;
3349;SDS011;1688;51.000;13.684;2023-08-30T14:44:09;1.50;;;1.40;;
3349;SDS011;1688;51.000;13.684;2023-08-30T14:46:57;1.87;;;1.57;;
3349;SDS011;1688;51.000;13.684;2023-08-30T14:49:30;1.60;;;1.50;;
3349;SDS011;1688;51.000;13.684;2023-08-30T14:52:06;2.30;;;1.90;;
3349;SDS011;1688;51.000;13.684;2023-08-30T14:54:39;1.70;;;1.60;;
3349;SDS011;1688;51.000;13.684;2023-08-30T14:57:12;1.40;;;1.30;;
3349;SDS011;1688;51.000;13.684;2023-08-30T14:59:46;3.13;;;1.70;;
3349;SDS011;1688;51.000;13.684;2023-08-30T15:02:19;1.53;;;1.30;;
3349;SDS011;1688;51.000;13.684;2023-08-30T15:04:52;1.90;;;1.30;;
3349;SDS011;1688;51.000;13.684;2023-08-30T15:07:25;2.30;;;2.10;;
3349;SDS011;1688;51.000;13.684;2023-08-30T15:09:58;1.80;;;1.70;;
3349;SDS011;1688;51.000;13.684;2023-08-30T15:12:31;1.47;;;1.37;;
3349;SDS011;1688;51.000;13.684;2023-08-30T15:15:04;1.67;;;1.40;;
3349;SDS011;1688;51.000;13.684;2023-08-30T15:17:37;1.50;;;1.40;;
3349;SDS011;1688;51.000;13.684;2023-08-30T15:20:10;1.50;;;1.40;;
3349;SDS011;1688;51.000;13.684;2023-08-30T15:22:43;1.70;;;1.60;;
3349;SDS011;1688;51.000;13.684;2023-08-30T15:25:16;2.50;;;2.30;;
3349;SDS011;1688;51.000;13.684;2023-08-30T15:27:49;3.03;;;2.70;;
3349;SDS011;1688;51.000;13.684;2023-08-30T15:30:22;2.43;;;2.13;;
3349;SDS011;1688;51.000;13.684;2023-08-30T15:32:55;1.13;;;1.00;;
3349;SDS011;1688;51.000;13.684;2023-08-30T15:35:28;1.57;;;1.47;;
3349;SDS011;1688;51.000;13.684;2023-08-30T15:38:01;1.37;;;1.10;;
3349;SDS011;1688;51.000;13.684;2023-08-30T15:40:34;2.03;;;1.60;;
3349;SDS011;1688;51.000;13.684;2023-08-30T15:43:07;2.57;;;1.87;;
3349;SDS011;1688;51.000;13.684;2023-08-30T15:45:41;1.57;;;1.27;;
3349;SDS011;1688;51.000;13.684;2023-08-30T15:48:15;1.57;;;1.33;;
3349;SDS011;1688;51.000;13.684;2023-08-30T15:50:48;1.67;;;1.30;;
3349;SDS011;1688;51.000;13.684;2023-08-30T15:53:21;1.50;;;1.40;;
3349;SDS011;1688;51.000;13.684;2023-08-30T15:55:54;1.90;;;1.80;;